Time;durP1;ratioP1;P1;durP2;ratioP2;P2;SDS_P1;SDS_P2;PMS_P1;PMS_P2;Temp;Humidity;BMP_temperature;BMP_pressure;BME280_temperature;BME280_humidity;BME280_pressure;Samples;Min_cycle;Max_cycle;Signal;HPM_P1;HPM_P2
2021/03/30 00:01:24;;;;;;;10.80;10.20;;;23.10;93.10;;;;;;5103663;28;20494;-51
2021/03/30 00:03:52;;;;;;;10.30;9.80;;;23.00;93.10;;;;;;5095480;28;20831;-52
2021/03/30 00:06:20;;;;;;;10.57;10.07;;;23.10;93.10;;;;;;5095802;28;20541;-51
2021/03/30 00:08:47;;;;;;;10.87;10.33;;;23.00;93.10;;;;;;5077654;28;20454;-50
2021/03/30 00:11:15;;;;;;;10.53;10.03;;;23.00;93.00;;;;;;5095884;28;20552;-53
2021/03/30 00:13:42;;;;;;;11.43;10.73;;;23.00;93.00;;;;;;5100410;28;20478;-50
2021/03/30 00:16:11;;;;;;;10.67;10.17;;;23.10;93.10;;;;;;5116302;28;20603;-51
2021/03/30 00:18:39;;;;;;;10.57;10.07;;;23.00;93.00;;;;;;5101702;28;20466;-51
2021/03/30 00:21:06;;;;;;;11.27;10.70;;;23.10;93.10;;;;;;5095812;28;20567;-53
2021/03/30 00:23:34;;;;;;;10.60;10.20;;;23.10;93.10;;;;;;5108864;28;20733;-55
2021/03/30 00:26:01;;;;;;;11.23;10.63;;;23.10;93.00;;;;;;5114579;28;20469;-52
2021/03/30 00:28:37;;;;;;;10.97;10.43;;;23.10;93.00;;;;;;5116055;28;20508;-53
2021/03/30 00:31:04;;;;;;;10.90;10.40;;;23.10;93.00;;;;;;5111609;28;20477;-52
2021/03/30 00:33:31;;;;;;;10.37;9.87;;;23.10;93.00;;;;;;5099668;28;20476;-50
2021/03/30 00:35:58;;;;;;;10.87;10.33;;;23.10;93.00;;;;;;5095976;28;20470;-51
2021/03/30 00:38:26;;;;;;;10.27;9.77;;;23.10;93.00;;;;;;5095051;28;20455;-51
2021/03/30 00:40:54;;;;;;;11.10;10.50;;;23.10;93.00;;;;;;5087925;28;21005;-53
2021/03/30 00:43:21;;;;;;;11.03;10.53;;;23.10;93.00;;;;;;5092650;28;20454;-52
2021/03/30 00:45:51;;;;;;;11.17;10.50;;;23.10;93.00;;;;;;5081311;28;20452;-51
2021/03/30 00:48:22;;;;;;;10.40;10.00;;;23.10;93.00;;;;;;5095049;28;20502;-50
2021/03/30 00:50:50;;;;;;;11.10;10.60;;;23.10;93.00;;;;;;5094332;28;20447;-52
2021/03/30 00:53:50;;;;;;;10.90;10.40;;;23.10;92.90;;;;;;5072537;28;20454;-51
2021/03/30 00:56:40;;;;;;;10.60;10.10;;;23.10;92.90;;;;;;5075724;28;20462;-51
2021/03/30 00:59:08;;;;;;;10.67;10.17;;;23.10;92.90;;;;;;5075684;28;20447;-51
2021/03/30 01:01:36;;;;;;;10.77;10.17;;;23.10;92.90;;;;;;5073253;28;20914;-53
2021/03/30 01:04:03;;;;;;;10.60;10.10;;;23.10;92.90;;;;;;5081132;28;20447;-51
2021/03/30 01:06:31;;;;;;;10.23;9.83;;;23.10;92.90;;;;;;5073620;28;20462;-51
2021/03/30 01:09:13;;;;;;;10.47;10.00;;;23.10;92.90;;;;;;5075097;28;20540;-51
2021/03/30 01:11:49;;;;;;;10.53;10.03;;;23.10;92.90;;;;;;5074139;28;20891;-51
2021/03/30 01:14:45;;;;;;;10.37;9.97;;;23.10;92.90;;;;;;5072952;28;20885;-50
2021/03/30 01:17:22;;;;;;;9.73;9.40;;;23.10;92.90;;;;;;5072334;28;20503;-54
2021/03/30 01:20:13;;;;;;;10.67;10.20;;;23.10;92.90;;;;;;5089984;28;20526;-53
2021/03/30 01:23:39;;;;;;;10.53;10.03;;;23.10;92.90;;;;;;5094215;28;20449;-54
2021/03/30 01:26:18;;;;;;;11.00;10.50;;;23.10;92.90;;;;;;5048515;28;20469;-50
2021/03/30 01:29:02;;;;;;;10.17;9.47;;;23.10;92.80;;;;;;5094416;28;20480;-51
2021/03/30 01:31:34;;;;;;;10.47;9.97;;;23.10;92.80;;;;;;5106763;28;20461;-51
2021/03/30 01:34:02;;;;;;;10.40;9.90;;;23.10;92.80;;;;;;5093703;28;20500;-52
2021/03/30 01:36:30;;;;;;;9.80;9.40;;;23.10;92.80;;;;;;5075937;28;20930;-51
2021/03/30 01:38:57;;;;;;;10.77;10.27;;;23.10;92.80;;;;;;5076871;28;20459;-50
2021/03/30 01:41:25;;;;;;;9.77;9.33;;;23.10;92.80;;;;;;5095433;28;20446;-51
2021/03/30 01:43:54;;;;;;;10.90;10.37;;;23.10;92.80;;;;;;5093642;28;20456;-52
2021/03/30 01:46:22;;;;;;;10.90;10.33;;;23.10;92.80;;;;;;5095004;28;20453;-50
2021/03/30 01:48:49;;;;;;;10.63;10.13;;;23.20;92.80;;;;;;5111961;28;20950;-51
2021/03/30 01:51:17;;;;;;;10.10;9.70;;;23.10;92.70;;;;;;5111740;28;20656;-50
2021/03/30 01:53:44;;;;;;;10.03;9.60;;;23.20;92.80;;;;;;5112439;28;20846;-51
2021/03/30 01:56:13;;;;;;;10.33;9.70;;;23.20;92.80;;;;;;5094371;28;20845;-51
2021/03/30 01:58:40;;;;;;;10.17;9.67;;;23.20;92.70;;;;;;5097205;28;20545;-51
2021/03/30 02:01:08;;;;;;;10.17;9.77;;;23.20;92.70;;;;;;5075908;28;20809;-52
2021/03/30 02:03:36;;;;;;;11.07;10.50;;;23.20;92.70;;;;;;5092875;28;20536;-50
2021/03/30 02:06:06;;;;;;;10.60;9.70;;;23.20;92.70;;;;;;5092365;28;20543;-53
2021/03/30 02:08:33;;;;;;;10.67;10.23;;;23.20;92.70;;;;;;5094061;28;20443;-53
2021/03/30 02:11:00;;;;;;;10.43;10.03;;;23.20;92.70;;;;;;5093385;28;20451;-51
2021/03/30 02:13:30;;;;;;;11.10;10.50;;;23.20;92.60;;;;;;5091862;28;20880;-50
2021/03/30 02:16:01;;;;;;;11.20;10.70;;;23.20;92.60;;;;;;5090738;28;20472;-51
2021/03/30 02:18:33;;;;;;;10.57;10.17;;;23.20;92.60;;;;;;5092910;28;20527;-52
2021/03/30 02:21:05;;;;;;;10.53;10.03;;;23.20;92.50;;;;;;5092188;28;20520;-52
2021/03/30 02:23:36;;;;;;;10.20;9.80;;;23.20;92.50;;;;;;5112418;28;20454;-51
2021/03/30 02:26:06;;;;;;;11.20;10.40;;;23.30;92.60;;;;;;5110915;28;20438;-50
2021/03/30 02:28:42;;;;;;;10.10;9.70;;;23.30;92.60;;;;;;5092164;28;20468;-52
2021/03/30 02:31:12;;;;;;;9.57;9.27;;;23.30;92.50;;;;;;5092163;28;20923;-51
2021/03/30 02:33:40;;;;;;;10.20;9.80;;;23.30;92.50;;;;;;5092310;28;20547;-51
2021/03/30 02:36:08;;;;;;;10.47;10.07;;;23.30;92.50;;;;;;5091843;28;20546;-50
2021/03/30 02:38:35;;;;;;;10.77;10.27;;;23.30;92.50;;;;;;5089777;28;20517;-50
2021/03/30 02:41:02;;;;;;;10.30;9.90;;;23.30;92.40;;;;;;5091336;28;20991;-52
2021/03/30 02:43:29;;;;;;;10.60;10.10;;;23.30;92.40;;;;;;5111551;28;20534;-51
2021/03/30 02:45:57;;;;;;;10.90;10.30;;;23.30;92.40;;;;;;5101111;28;20445;-52
2021/03/30 02:48:24;;;;;;;10.90;10.27;;;23.40;92.50;;;;;;5093128;28;20515;-51
2021/03/30 02:50:50;;;;;;;10.80;10.20;;;23.40;92.80;;;;;;5108582;28;20468;-52
2021/03/30 02:53:19;;;;;;;9.97;9.57;;;23.40;92.40;;;;;;5100398;28;20472;-52
2021/03/30 02:55:48;;;;;;;9.60;9.20;;;23.40;92.40;;;;;;5097442;28;20519;-50
2021/03/30 02:58:14;;;;;;;10.20;9.80;;;23.40;92.40;;;;;;5096907;28;20481;-51
2021/03/30 03:00:44;;;;;;;10.57;10.07;;;23.40;92.40;;;;;;5098619;28;20998;-52
2021/03/30 03:03:14;;;;;;;10.97;10.47;;;23.40;92.40;;;;;;5101846;28;20471;-50
2021/03/30 03:05:45;;;;;;;10.97;10.47;;;23.40;92.30;;;;;;5096731;28;20522;-51
2021/03/30 03:08:15;;;;;;;10.60;10.10;;;23.40;92.30;;;;;;5094751;28;20819;-52
2021/03/30 03:10:43;;;;;;;10.83;10.33;;;23.40;92.30;;;;;;5114881;28;20505;-51
2021/03/30 03:13:14;;;;;;;11.20;10.70;;;23.40;92.30;;;;;;5093242;28;20641;-51
2021/03/30 03:15:42;;;;;;;11.70;11.07;;;23.40;92.30;;;;;;5111832;28;20573;-55
2021/03/30 03:18:10;;;;;;;11.00;10.50;;;23.40;92.20;;;;;;5111151;28;20562;-51
2021/03/30 03:20:38;;;;;;;10.90;10.40;;;23.40;92.20;;;;;;5100180;28;20572;-51
2021/03/30 03:23:07;;;;;;;11.23;10.63;;;23.50;92.30;;;;;;5102393;28;20449;-52
2021/03/30 03:25:35;;;;;;;11.63;11.13;;;23.50;92.20;;;;;;5107647;28;20875;-50
2021/03/30 03:28:03;;;;;;;11.50;10.90;;;23.50;92.20;;;;;;5115631;28;20551;-51
2021/03/30 03:30:32;;;;;;;11.60;11.10;;;23.50;92.20;;;;;;5116786;28;20473;-51
2021/03/30 03:33:10;;;;;;;11.57;11.07;;;23.50;92.20;;;;;;5096953;28;20477;-51
2021/03/30 03:35:37;;;;;;;10.30;10.00;;;23.50;92.20;;;;;;5095431;28;21193;-50
2021/03/30 03:38:06;;;;;;;11.03;10.60;;;23.50;92.10;;;;;;5114994;28;20515;-50
2021/03/30 03:40:33;;;;;;;11.77;11.10;;;23.50;92.20;;;;;;5097018;28;20520;-50
2021/03/30 03:43:04;;;;;;;11.40;10.90;;;23.50;92.10;;;;;;5107953;28;20454;-50
2021/03/30 03:45:31;;;;;;;11.10;10.70;;;23.50;92.10;;;;;;5095343;28;20446;-51
2021/03/30 03:47:58;;;;;;;11.40;10.90;;;23.50;92.10;;;;;;5097413;28;20548;-55
2021/03/30 03:50:24;;;;;;;11.50;11.00;;;23.50;92.10;;;;;;5092620;28;20593;-51
2021/03/30 03:52:55;;;;;;;11.80;11.30;;;23.60;92.10;;;;;;5123256;27;20791;-52
2021/03/30 03:55:22;;;;;;;10.67;10.27;;;23.60;92.10;;;;;;5135238;27;20914;-52
2021/03/30 03:57:52;;;;;;;11.50;11.00;;;23.60;92.00;;;;;;5119297;27;20527;-50
2021/03/30 04:00:23;;;;;;;12.00;11.40;;;23.60;92.00;;;;;;5114028;27;20500;-51
2021/03/30 04:02:55;;;;;;;11.50;10.90;;;23.60;91.90;;;;;;5114225;28;20468;-51
2021/03/30 04:05:26;;;;;;;11.57;11.07;;;23.60;91.90;;;;;;5111920;27;20452;-53
2021/03/30 04:07:55;;;;;;;12.23;11.73;;;23.60;91.90;;;;;;5127334;27;20552;-51
2021/03/30 04:10:24;;;;;;;11.90;11.40;;;23.70;91.90;;;;;;5133299;27;20455;-52
2021/03/30 04:12:52;;;;;;;12.10;11.60;;;23.70;91.90;;;;;;5134445;27;20596;-51
2021/03/30 04:15:24;;;;;;;11.70;11.20;;;23.70;91.90;;;;;;5116086;27;20477;-51
2021/03/30 04:17:52;;;;;;;12.03;11.53;;;23.70;91.80;;;;;;5114711;27;20460;-50
2021/03/30 04:20:21;;;;;;;12.23;11.73;;;23.70;91.80;;;;;;5133230;27;20479;-51
2021/03/30 04:22:52;;;;;;;11.33;10.90;;;23.70;91.80;;;;;;5132159;27;21152;-52
2021/03/30 04:25:19;;;;;;;12.33;11.67;;;23.70;91.80;;;;;;5101291;28;20534;-51
2021/03/30 04:27:45;;;;;;;12.40;11.83;;;23.80;91.80;;;;;;5111535;27;20461;-52
2021/03/30 04:30:13;;;;;;;11.97;11.47;;;23.80;91.80;;;;;;5094819;28;20485;-51
2021/03/30 04:32:41;;;;;;;11.90;11.37;;;23.80;91.80;;;;;;5109773;28;20525;-50
2021/03/30 04:35:09;;;;;;;11.53;11.03;;;23.80;91.70;;;;;;5112483;27;20586;-51
2021/03/30 04:37:36;;;;;;;12.33;11.63;;;23.80;91.70;;;;;;5110132;28;20877;-50
2021/03/30 04:40:02;;;;;;;11.83;11.20;;;23.80;91.70;;;;;;5105706;28;20450;-50
2021/03/30 04:42:29;;;;;;;12.10;11.37;;;23.80;91.70;;;;;;5101542;28;20560;-50
2021/03/30 04:44:56;;;;;;;11.77;11.27;;;23.80;91.70;;;;;;5105539;27;20468;-50
2021/03/30 04:47:23;;;;;;;12.90;12.13;;;23.80;91.60;;;;;;5129731;27;21211;-52
2021/03/30 04:49:51;;;;;;;12.83;12.23;;;23.80;91.60;;;;;;5110485;27;20453;-51
2021/03/30 04:52:18;;;;;;;12.27;11.77;;;23.80;91.60;;;;;;5105110;28;20477;-52
2021/03/30 04:54:44;;;;;;;12.60;12.10;;;23.90;91.60;;;;;;5047111;28;20477;-52
2021/03/30 04:57:11;;;;;;;12.33;11.80;;;23.90;91.60;;;;;;5106074;27;20802;-54
2021/03/30 04:59:37;;;;;;;13.20;12.57;;;23.90;91.60;;;;;;5116311;27;20917;-53
2021/03/30 05:02:05;;;;;;;11.67;11.27;;;23.90;91.60;;;;;;5100113;27;20566;-51
2021/03/30 05:04:31;;;;;;;12.43;11.83;;;23.90;91.50;;;;;;5127102;27;20441;-54
2021/03/30 05:06:59;;;;;;;12.00;11.60;;;23.90;91.50;;;;;;5115041;27;20440;-54
2021/03/30 05:09:25;;;;;;;12.13;11.57;;;23.90;91.50;;;;;;5108738;27;20564;-52
2021/03/30 05:11:52;;;;;;;11.70;11.27;;;23.90;91.50;;;;;;5120592;27;20479;-52
2021/03/30 05:14:20;;;;;;;11.50;11.10;;;23.90;91.50;;;;;;5084960;28;21226;-52
2021/03/30 05:16:48;;;;;;;12.47;11.77;;;23.90;91.40;;;;;;5084009;28;21106;-51
2021/03/30 05:19:14;;;;;;;11.00;10.60;;;23.90;91.40;;;;;;5101328;27;20922;-53
2021/03/30 05:21:42;;;;;;;12.17;11.43;;;23.90;91.40;;;;;;5103460;28;20464;-52
2021/03/30 05:24:10;;;;;;;12.30;11.70;;;23.90;91.40;;;;;;5103327;27;20448;-54
2021/03/30 05:26:38;;;;;;;11.40;10.90;;;23.90;91.40;;;;;;5109212;27;20540;-52
2021/03/30 05:29:05;;;;;;;11.63;11.13;;;24.00;91.40;;;;;;5102136;28;20457;-53
2021/03/30 05:31:34;;;;;;;11.40;10.80;;;24.00;91.40;;;;;;5094106;27;20516;-52
2021/03/30 05:34:01;;;;;;;11.37;10.93;;;24.00;91.40;;;;;;5121378;27;20488;-52
2021/03/30 05:36:28;;;;;;;11.27;10.77;;;24.00;91.40;;;;;;5103766;27;20518;-54
2021/03/30 05:38:56;;;;;;;11.60;11.00;;;24.00;91.30;;;;;;5098380;28;20451;-51
2021/03/30 05:41:25;;;;;;;11.60;11.17;;;24.00;91.30;;;;;;5112649;27;20531;-52
2021/03/30 05:43:53;;;;;;;11.83;11.33;;;24.00;91.30;;;;;;5102365;27;20588;-52
2021/03/30 05:46:20;;;;;;;11.53;11.07;;;24.00;91.30;;;;;;5097955;27;20788;-51
2021/03/30 05:48:49;;;;;;;11.80;11.30;;;24.00;91.30;;;;;;5099347;28;20481;-53
2021/03/30 05:51:18;;;;;;;11.60;11.20;;;24.00;91.30;;;;;;5097966;28;20802;-52
2021/03/30 05:53:53;;;;;;;11.93;11.13;;;24.00;91.30;;;;;;5100325;27;20455;-53
2021/03/30 05:56:22;;;;;;;11.23;10.67;;;24.00;91.30;;;;;;5097282;27;20606;-54
2021/03/30 05:58:52;;;;;;;11.20;10.80;;;24.00;91.20;;;;;;5113433;27;20464;-54
2021/03/30 06:01:21;;;;;;;12.00;11.33;;;24.10;91.30;;;;;;5088352;27;20981;-52
2021/03/30 06:03:49;;;;;;;11.23;10.63;;;24.00;91.20;;;;;;5076677;28;20583;-53
2021/03/30 06:06:17;;;;;;;12.20;11.50;;;24.10;91.20;;;;;;5075747;28;20506;-55
2021/03/30 06:08:45;;;;;;;11.27;10.77;;;24.10;91.30;;;;;;5071212;28;21129;-51
2021/03/30 06:11:12;;;;;;;12.30;11.60;;;24.10;91.20;;;;;;5051205;28;20897;-53
2021/03/30 06:13:52;;;;;;;12.13;11.53;;;24.10;91.20;;;;;;5055351;28;20534;-51
2021/03/30 06:16:30;;;;;;;11.50;10.93;;;24.10;91.30;;;;;;5078554;28;21081;-54
2021/03/30 06:19:10;;;;;;;12.13;11.53;;;24.10;91.30;;;;;;5072974;28;21338;-51
2021/03/30 06:21:39;;;;;;;12.03;11.33;;;24.10;91.40;;;;;;5084083;28;20548;-52
2021/03/30 06:24:27;;;;;;;12.13;11.17;;;24.10;91.40;;;;;;5089755;28;20460;-51
2021/03/30 06:26:56;;;;;;;11.43;10.83;;;24.10;91.40;;;;;;5082757;28;20451;-52
2021/03/30 06:29:28;;;;;;;11.33;10.73;;;24.10;91.40;;;;;;5065628;28;20495;-52
2021/03/30 06:32:03;;;;;;;11.63;10.97;;;24.10;91.40;;;;;;5087202;28;20457;-51
2021/03/30 06:34:30;;;;;;;12.03;11.30;;;24.10;91.50;;;;;;5089923;28;20453;-51
2021/03/30 06:36:57;;;;;;;12.30;11.40;;;24.10;91.50;;;;;;5072855;28;20518;-53
2021/03/30 06:39:43;;;;;;;12.03;11.13;;;24.10;91.50;;;;;;5079039;28;20481;-51
2021/03/30 06:42:15;;;;;;;11.30;10.57;;;24.10;91.60;;;;;;5073379;28;20449;-55
2021/03/30 06:44:44;;;;;;;11.43;10.83;;;24.10;91.60;;;;;;5048294;28;21112;-53
2021/03/30 06:47:19;;;;;;;11.40;10.70;;;24.10;91.60;;;;;;5081186;28;20487;-50
2021/03/30 06:49:56;;;;;;;12.20;11.20;;;24.10;91.60;;;;;;5065715;28;20454;-53
2021/03/30 06:52:28;;;;;;;12.10;11.30;;;24.10;91.60;;;;;;5073905;28;20606;-52
2021/03/30 06:54:58;;;;;;;12.63;11.53;;;24.20;91.60;;;;;;5062041;28;20456;-51
2021/03/30 06:57:46;;;;;;;12.47;11.50;;;24.10;91.60;;;;;;5066634;28;20810;-53
2021/03/30 07:00:19;;;;;;;11.97;11.37;;;24.10;91.70;;;;;;5073986;28;21147;-50
2021/03/30 07:02:48;;;;;;;11.87;11.07;;;24.10;91.70;;;;;;5074498;28;21115;-51
2021/03/30 07:05:26;;;;;;;11.37;10.60;;;24.10;91.80;;;;;;5081403;28;20455;-53
2021/03/30 07:07:54;;;;;;;11.47;10.83;;;24.10;91.80;;;;;;5068379;28;20519;-52
2021/03/30 07:10:21;;;;;;;12.40;11.30;;;24.10;91.80;;;;;;5050619;28;20552;-53
2021/03/30 07:12:50;;;;;;;11.67;10.87;;;24.10;91.80;;;;;;5065475;28;20450;-54
2021/03/30 07:15:20;;;;;;;12.20;11.20;;;24.10;91.90;;;;;;5076155;28;20465;-53
2021/03/30 07:17:59;;;;;;;11.70;11.00;;;24.10;91.90;;;;;;5066128;28;20452;-52
2021/03/30 07:20:26;;;;;;;10.77;10.10;;;24.10;91.90;;;;;;5079763;28;20457;-53
2021/03/30 07:22:55;;;;;;;11.83;11.13;;;24.10;92.00;;;;;;5076157;28;20472;-51
2021/03/30 07:25:23;;;;;;;13.30;11.00;;;24.10;92.00;;;;;;5060878;28;20459;-55
2021/03/30 07:28:00;;;;;;;11.40;10.80;;;24.10;92.10;;;;;;5073769;28;20461;-52
2021/03/30 07:30:29;;;;;;;11.73;10.90;;;24.10;92.20;;;;;;5086543;28;20452;-53
2021/03/30 07:33:22;;;;;;;11.90;11.00;;;24.00;92.10;;;;;;5074238;28;20519;-50
2021/03/30 07:35:50;;;;;;;11.33;10.73;;;24.00;92.20;;;;;;5065029;28;20477;-53
2021/03/30 07:38:21;;;;;;;12.73;11.83;;;24.00;92.20;;;;;;5064297;28;20450;-52
2021/03/30 07:40:49;;;;;;;11.67;10.90;;;24.00;92.20;;;;;;5029937;28;21074;-51
2021/03/30 07:43:23;;;;;;;12.10;11.40;;;24.00;92.30;;;;;;5051642;28;21049;-50
2021/03/30 07:45:52;;;;;;;12.90;11.83;;;24.00;92.30;;;;;;5066205;28;20663;-53
2021/03/30 07:48:20;;;;;;;11.57;10.97;;;23.90;92.30;;;;;;5068495;28;20471;-51
2021/03/30 07:50:52;;;;;;;11.87;10.97;;;24.00;92.40;;;;;;5065763;28;20481;-52
2021/03/30 07:53:38;;;;;;;12.20;11.60;;;24.00;92.40;;;;;;5076232;28;20499;-50
2021/03/30 07:56:07;;;;;;;12.53;11.63;;;23.90;92.40;;;;;;5080424;28;20518;-52
2021/03/30 07:58:42;;;;;;;11.60;11.00;;;24.00;92.40;;;;;;5070934;28;20468;-50
2021/03/30 08:01:14;;;;;;;11.60;10.90;;;24.00;92.40;;;;;;5077285;28;20460;-50
2021/03/30 08:03:43;;;;;;;12.40;11.20;;;23.90;92.40;;;;;;5053158;28;20828;-50
2021/03/30 08:06:22;;;;;;;12.27;11.47;;;23.90;92.40;;;;;;5081841;28;20481;-51
2021/03/30 08:08:54;;;;;;;12.40;11.43;;;24.00;92.50;;;;;;5067030;28;20875;-51
2021/03/30 08:11:53;;;;;;;13.13;12.23;;;24.00;92.60;;;;;;5058824;28;20534;-51
2021/03/30 08:14:40;;;;;;;13.07;12.00;;;24.00;92.60;;;;;;5059882;28;20912;-50
2021/03/30 08:17:11;;;;;;;12.93;11.90;;;24.00;92.70;;;;;;5077497;28;20461;-51
2021/03/30 08:20:00;;;;;;;13.37;12.57;;;24.00;92.80;;;;;;5084326;28;20512;-50
2021/03/30 08:22:40;;;;;;;12.73;11.73;;;24.00;92.80;;;;;;5063154;28;20836;-51
2021/03/30 08:25:22;;;;;;;13.40;12.23;;;24.00;92.90;;;;;;5064530;28;20453;-53
2021/03/30 08:27:50;;;;;;;12.83;11.87;;;24.00;92.90;;;;;;5072077;28;20816;-54
2021/03/30 08:30:57;;;;;;;13.80;12.40;;;24.00;92.90;;;;;;5072338;28;20497;-53
2021/03/30 08:33:35;;;;;;;13.77;12.57;;;24.00;93.00;;;;;;5075425;28;20495;-49
2021/03/30 08:36:19;;;;;;;12.80;11.70;;;24.00;93.00;;;;;;5081846;28;20478;-50
2021/03/30 08:38:49;;;;;;;13.30;12.10;;;24.00;93.10;;;;;;5074419;28;20553;-50
2021/03/30 08:41:51;;;;;;;14.57;13.30;;;24.00;93.20;;;;;;5072352;28;20484;-54
2021/03/30 08:44:22;;;;;;;14.77;13.27;;;24.00;93.20;;;;;;5067589;28;20906;-51
2021/03/30 08:46:52;;;;;;;12.70;11.80;;;24.00;93.20;;;;;;5062924;28;20450;-50
2021/03/30 08:49:31;;;;;;;13.07;12.13;;;24.00;93.30;;;;;;5085033;28;20443;-50
2021/03/30 08:52:01;;;;;;;13.07;11.63;;;24.00;93.40;;;;;;5085214;28;20455;-50
2021/03/30 08:54:29;;;;;;;12.57;11.70;;;24.00;93.40;;;;;;5069673;28;20494;-51
2021/03/30 08:57:04;;;;;;;16.43;13.20;;;23.90;93.40;;;;;;5060133;28;20466;-51
2021/03/30 08:59:30;;;;;;;12.40;11.53;;;23.90;93.50;;;;;;5083342;28;20484;-49
2021/03/30 09:02:12;;;;;;;12.57;11.77;;;23.90;93.60;;;;;;5068066;28;20494;-49
2021/03/30 09:04:43;;;;;;;13.67;12.23;;;23.90;93.70;;;;;;5068711;28;20453;-50
2021/03/30 09:07:10;;;;;;;13.73;12.60;;;23.90;93.80;;;;;;5060524;28;20432;-54
2021/03/30 09:09:38;;;;;;;13.30;12.30;;;23.90;93.80;;;;;;5038794;28;20487;-51
2021/03/30 09:12:07;;;;;;;13.47;12.27;;;23.90;93.80;;;;;;5063617;28;20449;-52
2021/03/30 09:14:34;;;;;;;13.27;12.17;;;23.90;93.90;;;;;;5061913;28;21025;-50
2021/03/30 09:17:07;;;;;;;14.00;12.90;;;23.90;93.90;;;;;;5063546;28;20567;-50
2021/03/30 09:19:44;;;;;;;13.90;12.70;;;23.90;93.90;;;;;;5060130;28;20905;-55
2021/03/30 09:22:17;;;;;;;13.43;12.53;;;23.90;93.90;;;;;;5040015;28;20518;-54
2021/03/30 09:27:41;;;;;;;13.07;11.97;;;23.90;93.90;;;;;;5061274;28;20978;-50
2021/03/30 09:30:11;;;;;;;13.20;11.80;;;23.80;93.90;;;;;;5078556;28;20913;-51
2021/03/30 09:32:40;;;;;;;14.43;12.83;;;23.80;93.90;;;;;;5064156;28;20517;-53
2021/03/30 09:35:11;;;;;;;13.17;12.07;;;23.80;94.20;;;;;;5070424;28;20501;-50
2021/03/30 09:37:44;;;;;;;13.40;12.50;;;23.80;91.40;;;;;;5083192;28;20480;-52
2021/03/30 09:40:16;;;;;;;13.53;12.67;;;23.80;72.30;;;;;;5069623;28;20471;-51
2021/03/30 09:42:44;;;;;;;12.50;11.70;;;23.70;72.60;;;;;;5081142;28;20457;-51
2021/03/30 09:45:14;;;;;;;14.10;12.77;;;23.70;87.10;;;;;;5079585;28;20565;-51
2021/03/30 09:47:42;;;;;;;12.83;11.93;;;23.80;90.00;;;;;;5080941;28;20430;-53
2021/03/30 09:50:16;;;;;;;13.30;12.20;;;23.70;90.20;;;;;;5083763;28;20566;-50
2021/03/30 09:52:43;;;;;;;12.30;11.50;;;23.70;90.30;;;;;;5070476;28;20459;-52
2021/03/30 09:55:10;;;;;;;12.27;11.50;;;23.70;90.50;;;;;;5068664;28;20464;-50
2021/03/30 09:57:37;;;;;;;14.80;13.80;;;23.70;90.60;;;;;;5082854;28;20577;-51
2021/03/30 10:00:06;;;;;;;13.60;12.43;;;23.70;90.80;;;;;;5082631;28;20545;-51
2021/03/30 10:02:37;;;;;;;13.03;11.90;;;23.70;91.00;;;;;;5059102;28;20448;-50
2021/03/30 10:05:07;;;;;;;13.23;12.23;;;23.70;91.10;;;;;;5073279;28;20460;-49
2021/03/30 10:07:36;;;;;;;13.70;12.70;;;23.70;91.20;;;;;;5061468;28;20435;-51
2021/03/30 10:10:05;;;;;;;13.50;12.53;;;23.70;91.30;;;;;;5042639;28;20473;-53
2021/03/30 10:12:33;;;;;;;13.90;12.70;;;23.70;91.40;;;;;;5061648;28;20584;-51
2021/03/30 10:15:01;;;;;;;13.13;12.37;;;23.60;91.40;;;;;;5074056;28;20461;-54
2021/03/30 10:17:30;;;;;;;13.70;12.60;;;23.60;91.50;;;;;;5062081;28;20912;-50
2021/03/30 10:19:58;;;;;;;13.20;12.20;;;23.60;91.50;;;;;;5070492;28;20462;-54
2021/03/30 10:22:27;;;;;;;13.73;12.40;;;23.70;91.70;;;;;;5078573;28;20493;-55
2021/03/30 10:25:16;;;;;;;13.50;12.40;;;23.70;91.70;;;;;;5073456;28;20457;-55
2021/03/30 10:27:54;;;;;;;13.63;12.73;;;23.60;91.70;;;;;;5060282;28;21021;-51
2021/03/30 10:30:32;;;;;;;13.80;12.80;;;23.60;91.70;;;;;;5062858;28;21281;-52
2021/03/30 10:33:02;;;;;;;12.53;11.73;;;23.60;91.80;;;;;;5043644;28;20557;-51
2021/03/30 10:35:30;;;;;;;14.83;13.57;;;23.60;91.90;;;;;;5059107;28;20467;-50
2021/03/30 10:37:58;;;;;;;13.70;12.73;;;23.60;91.90;;;;;;5081839;28;20752;-53
2021/03/30 10:40:33;;;;;;;13.60;12.47;;;23.60;91.90;;;;;;5082206;28;20471;-53
2021/03/30 10:43:22;;;;;;;13.90;12.80;;;23.60;92.00;;;;;;5071031;28;20523;-51
2021/03/30 10:45:51;;;;;;;14.00;12.53;;;23.60;92.00;;;;;;5072620;28;20454;-51
2021/03/30 10:48:18;;;;;;;13.70;12.60;;;23.60;92.10;;;;;;5062584;28;20466;-50
2021/03/30 10:50:46;;;;;;;15.30;14.00;;;23.60;92.10;;;;;;5075239;28;20443;-51
2021/03/30 10:53:14;;;;;;;13.03;12.23;;;23.60;92.20;;;;;;5076929;28;20504;-50
2021/03/30 10:55:45;;;;;;;14.20;12.80;;;23.60;92.20;;;;;;5075535;28;21095;-51
2021/03/30 10:58:14;;;;;;;15.03;13.70;;;23.60;92.30;;;;;;5084047;28;21109;-51
2021/03/30 11:00:43;;;;;;;14.50;13.23;;;23.60;92.30;;;;;;5072658;28;20458;-51
2021/03/30 11:03:11;;;;;;;14.30;13.30;;;23.60;92.30;;;;;;5068325;28;20451;-50
2021/03/30 11:05:38;;;;;;;14.53;12.97;;;23.60;92.40;;;;;;5081842;28;20549;-52
2021/03/30 11:08:05;;;;;;;13.40;12.30;;;23.50;92.40;;;;;;5074400;28;20465;-50
2021/03/30 11:10:34;;;;;;;13.30;11.97;;;23.50;92.40;;;;;;5065583;28;20457;-52
2021/03/30 11:13:02;;;;;;;18.80;13.70;;;23.50;92.50;;;;;;5089471;28;20465;-49
2021/03/30 11:15:29;;;;;;;14.03;12.90;;;23.50;92.50;;;;;;5077300;28;20503;-50
2021/03/30 11:17:56;;;;;;;13.20;11.87;;;23.50;92.60;;;;;;5083528;28;21535;-51
2021/03/30 11:20:26;;;;;;;14.03;12.90;;;23.50;92.60;;;;;;5088746;28;20847;-51
2021/03/30 11:22:54;;;;;;;14.50;13.33;;;23.50;92.70;;;;;;5068576;28;20462;-52
2021/03/30 11:25:23;;;;;;;16.20;14.57;;;23.50;92.70;;;;;;5052257;28;20452;-51
2021/03/30 11:27:53;;;;;;;13.77;12.37;;;23.50;92.80;;;;;;5082008;28;20456;-50
2021/03/30 11:30:23;;;;;;;12.97;11.77;;;23.50;92.80;;;;;;5070158;28;20485;-51
2021/03/30 11:32:57;;;;;;;13.17;12.07;;;23.50;92.80;;;;;;5072748;28;20461;-50
2021/03/30 11:35:28;;;;;;;13.73;12.80;;;23.50;92.80;;;;;;5083377;28;20449;-52
2021/03/30 11:38:04;;;;;;;14.40;13.10;;;23.50;92.90;;;;;;5086280;28;20448;-52
2021/03/30 11:40:32;;;;;;;13.03;12.07;;;23.50;92.90;;;;;;5071231;28;20540;-51
2021/03/30 11:43:00;;;;;;;14.90;13.40;;;23.50;93.00;;;;;;5070982;28;20457;-51
2021/03/30 11:45:27;;;;;;;15.07;13.77;;;23.50;93.00;;;;;;5069282;28;20465;-50
2021/03/30 11:47:55;;;;;;;18.07;13.20;;;23.50;93.10;;;;;;5064804;28;21354;-49
2021/03/30 11:50:22;;;;;;;14.97;13.60;;;23.50;93.20;;;;;;5072006;28;20955;-51
2021/03/30 11:52:50;;;;;;;14.40;13.10;;;23.50;93.30;;;;;;5076430;28;20482;-52
2021/03/30 11:55:17;;;;;;;15.17;13.73;;;23.50;93.30;;;;;;5070431;28;20866;-52
2021/03/30 11:57:44;;;;;;;15.77;14.13;;;23.50;93.40;;;;;;5074903;28;20460;-51
2021/03/30 12:00:12;;;;;;;14.60;13.30;;;23.50;93.40;;;;;;5076289;28;20545;-50
2021/03/30 12:02:40;;;;;;;14.00;12.83;;;23.50;93.40;;;;;;5064735;28;20472;-50
2021/03/30 12:05:08;;;;;;;13.03;11.93;;;23.50;93.50;;;;;;5066403;28;20449;-52
2021/03/30 12:07:35;;;;;;;13.63;12.27;;;23.50;93.50;;;;;;5068259;28;20452;-52
2021/03/30 12:10:02;;;;;;;13.63;12.57;;;23.50;93.60;;;;;;5069329;28;20945;-50
2021/03/30 12:12:30;;;;;;;13.03;12.10;;;23.50;93.60;;;;;;5065674;28;20494;-50
2021/03/30 12:14:56;;;;;;;13.40;12.10;;;23.50;93.70;;;;;;5069529;28;20982;-50
2021/03/30 12:17:24;;;;;;;13.20;12.17;;;23.50;93.70;;;;;;5082738;28;20484;-53
2021/03/30 12:19:55;;;;;;;14.17;13.00;;;23.50;93.70;;;;;;5086446;28;20947;-51
2021/03/30 12:22:23;;;;;;;14.40;13.00;;;23.40;93.70;;;;;;5066131;28;20550;-50
2021/03/30 12:24:49;;;;;;;14.20;13.10;;;23.50;93.90;;;;;;5065658;28;20580;-52
2021/03/30 12:27:17;;;;;;;17.67;13.07;;;23.50;94.00;;;;;;5070083;28;20444;-51
2021/03/30 12:29:46;;;;;;;13.90;12.60;;;23.50;94.00;;;;;;5079833;28;20441;-53
2021/03/30 12:32:12;;;;;;;13.17;12.00;;;23.50;94.10;;;;;;5075218;28;20457;-53
2021/03/30 12:34:40;;;;;;;13.77;12.47;;;23.50;94.20;;;;;;5068868;28;20501;-53
2021/03/30 12:37:10;;;;;;;13.57;12.37;;;23.50;94.20;;;;;;5066428;28;20468;-51
2021/03/30 12:39:37;;;;;;;12.43;11.43;;;23.50;94.20;;;;;;5048478;28;20620;-50
2021/03/30 12:42:06;;;;;;;14.77;13.27;;;23.50;94.30;;;;;;5085131;28;20846;-49
2021/03/30 12:44:34;;;;;;;12.87;11.77;;;23.50;94.30;;;;;;5067755;28;21090;-52
2021/03/30 12:47:02;;;;;;;15.03;13.80;;;23.50;94.30;;;;;;5065742;28;20445;-54
2021/03/30 12:49:29;;;;;;;12.40;11.50;;;23.50;94.40;;;;;;5067014;28;20521;-53